Time;durP1;ratioP1;P1;durP2;ratioP2;P2;SDS_P1;SDS_P2;PMS_P1;PMS_P2;Temp;Humidity;BMP_temperature;BMP_pressure;BME280_temperature;BME280_humidity;BME280_pressure;Samples;Min_cycle;Max_cycle;Signal;HPM_P1;HPM_P2
2021/10/03 00:02:15;;;;;;;1754.17;722.83;;;16.50;99.90;;;;;;5112840;28;21013;-77
2021/10/03 00:04:43;;;;;;;1869.70;741.40;;;16.60;99.90;;;;;;5113088;28;20433;-76
2021/10/03 00:07:12;;;;;;;1900.27;747.13;;;16.60;99.90;;;;;;5114694;28;20575;-77
2021/10/03 00:09:40;;;;;;;1727.13;721.73;;;16.70;99.90;;;;;;5112963;28;20451;-77
2021/10/03 00:12:09;;;;;;;1593.63;697.97;;;16.70;99.90;;;;;;5114292;28;20530;-76
2021/10/03 00:14:37;;;;;;;1999.90;999.90;;;16.70;99.90;;;;;;5113935;28;20505;-76
2021/10/03 00:17:06;;;;;;;1999.90;999.90;;;16.80;99.90;;;;;;5112675;28;20467;-77
2021/10/03 00:19:35;;;;;;;1999.90;999.90;;;16.90;99.90;;;;;;5114220;28;20509;-76
2021/10/03 00:22:03;;;;;;;1999.90;999.90;;;16.90;99.90;;;;;;5112020;28;20442;-76
2021/10/03 00:24:32;;;;;;;1999.90;999.90;;;17.00;99.90;;;;;;5112743;28;20194;-77
2021/10/03 00:27:00;;;;;;;1694.57;715.70;;;17.10;99.90;;;;;;5112460;28;20499;-76
2021/10/03 00:29:29;;;;;;;1677.07;706.23;;;17.10;99.90;;;;;;5113728;28;20837;-76
2021/10/03 00:31:57;;;;;;;1736.10;724.10;;;17.10;99.90;;;;;;5114101;28;20490;-78
2021/10/03 00:34:26;;;;;;;1999.90;999.90;;;17.20;99.90;;;;;;5112463;28;20457;-76
2021/10/03 00:36:55;;;;;;;1999.90;999.90;;;17.20;99.90;;;;;;5113928;28;20490;-77
2021/10/03 00:39:23;;;;;;;1531.53;691.67;;;17.20;99.90;;;;;;5113551;28;20801;-76
2021/10/03 00:41:53;;;;;;;1315.90;405.30;;;17.30;99.90;;;;;;5112346;28;20924;-76
2021/10/03 00:44:22;;;;;;;1493.60;443.43;;;17.30;99.90;;;;;;5112314;28;20430;-78
2021/10/03 00:46:50;;;;;;;1708.63;713.43;;;17.30;99.90;;;;;;5112554;28;20805;-76
2021/10/03 00:49:18;;;;;;;1249.43;163.07;;;17.30;99.90;;;;;;5112340;28;20979;-77
2021/10/03 00:51:48;;;;;;;1999.90;693.97;;;17.30;99.90;;;;;;5112093;28;20805;-77
2021/10/03 00:54:16;;;;;;;1999.90;999.90;;;17.40;99.90;;;;;;5113931;28;20181;-77
2021/10/03 00:56:45;;;;;;;955.90;112.60;;;17.40;99.90;;;;;;5112148;28;20463;-78
2021/10/03 00:59:13;;;;;;;1999.90;999.90;;;17.40;99.90;;;;;;5112938;28;20453;-77
2021/10/03 01:01:41;;;;;;;1916.70;757.57;;;17.50;99.90;;;;;;5112280;28;20204;-78
2021/10/03 01:04:10;;;;;;;1999.90;999.90;;;17.50;99.90;;;;;;5112277;28;20478;-77
2021/10/03 01:06:39;;;;;;;1999.90;999.90;;;17.50;99.90;;;;;;5112176;28;20467;-76
2021/10/03 01:09:09;;;;;;;1564.37;700.60;;;17.50;99.90;;;;;;5113690;28;20954;-78
2021/10/03 01:11:37;;;;;;;1999.90;999.90;;;17.50;99.90;;;;;;5112096;28;20468;-77
2021/10/03 01:14:06;;;;;;;1999.90;999.90;;;17.60;99.90;;;;;;5112237;28;20431;-77
2021/10/03 01:16:34;;;;;;;1999.90;999.90;;;17.60;99.90;;;;;;5113381;28;20538;-77
2021/10/03 01:19:02;;;;;;;1999.90;999.90;;;17.60;99.90;;;;;;5112125;28;20443;-76
2021/10/03 01:21:32;;;;;;;1999.90;999.90;;;17.70;99.90;;;;;;5113560;28;20492;-76
2021/10/03 01:24:00;;;;;;;1999.90;999.90;;;17.70;99.90;;;;;;5111978;28;20815;-76
2021/10/03 01:26:29;;;;;;;1560.73;693.97;;;17.70;99.90;;;;;;5111891;28;20469;-77
2021/10/03 01:28:58;;;;;;;1999.90;999.90;;;17.80;99.90;;;;;;5113505;28;20398;-77
2021/10/03 01:31:31;;;;;;;1999.90;999.90;;;17.80;99.90;;;;;;5112369;28;20545;-76
2021/10/03 01:34:00;;;;;;;1999.90;999.90;;;17.80;99.90;;;;;;5112001;28;20190;-77
2021/10/03 01:36:29;;;;;;;1999.90;999.90;;;17.90;99.90;;;;;;5111757;28;20477;-76
2021/10/03 01:38:58;;;;;;;1999.90;999.90;;;17.90;99.90;;;;;;5111742;28;20459;-76
2021/10/03 01:41:26;;;;;;;1999.90;999.90;;;17.90;99.90;;;;;;5112883;28;20440;-76
2021/10/03 01:43:54;;;;;;;1423.00;677.27;;;17.90;99.90;;;;;;5116967;28;20488;-77
2021/10/03 01:46:23;;;;;;;1999.90;999.90;;;18.00;99.90;;;;;;5115682;28;20477;-76
2021/10/03 01:48:51;;;;;;;1999.90;999.90;;;18.00;99.90;;;;;;5115570;28;20868;-76
2021/10/03 01:51:19;;;;;;;1999.90;999.90;;;18.00;99.90;;;;;;5116767;28;20911;-76
2021/10/03 01:53:50;;;;;;;1999.90;999.90;;;18.00;99.90;;;;;;5117101;28;20466;-77
2021/10/03 01:56:23;;;;;;;1539.30;687.73;;;18.00;99.90;;;;;;5115499;28;20459;-76
2021/10/03 01:58:53;;;;;;;1999.90;999.90;;;18.00;99.90;;;;;;5114370;28;20838;-77
2021/10/03 02:01:24;;;;;;;1999.90;999.90;;;18.10;99.90;;;;;;5115231;28;20667;-76
2021/10/03 02:03:53;;;;;;;1999.90;999.90;;;18.10;99.90;;;;;;5116917;28;20503;-76
2021/10/03 02:06:21;;;;;;;1605.53;696.77;;;18.10;99.90;;;;;;5115115;28;20459;-76
2021/10/03 02:08:55;;;;;;;1999.90;999.90;;;18.10;99.90;;;;;;5115168;28;20487;-76
2021/10/03 02:11:27;;;;;;;1999.90;999.90;;;18.10;99.90;;;;;;5114998;28;20459;-77
2021/10/03 02:13:55;;;;;;;841.93;66.33;;;18.10;99.90;;;;;;5115120;28;20534;-76
2021/10/03 02:16:23;;;;;;;1999.90;999.90;;;18.10;99.90;;;;;;5115248;28;20550;-76
2021/10/03 02:18:54;;;;;;;1999.90;999.90;;;18.10;99.90;;;;;;5116214;27;20438;-76
2021/10/03 02:21:22;;;;;;;1058.43;390.03;;;18.10;99.90;;;;;;5116568;27;20514;-76
2021/10/03 02:23:50;;;;;;;1514.67;688.33;;;18.10;99.90;;;;;;5114908;28;20968;-76
2021/10/03 02:26:18;;;;;;;991.93;372.03;;;18.10;99.90;;;;;;5114733;28;20481;-76
2021/10/03 02:28:48;;;;;;;1619.37;229.37;;;18.10;99.90;;;;;;5116419;27;20459;-77
2021/10/03 02:31:17;;;;;;;1999.90;785.70;;;18.10;99.90;;;;;;5115981;28;20478;-76
2021/10/03 02:33:48;;;;;;;1999.90;767.45;;;18.10;99.90;;;;;;5115804;27;20445;-76
2021/10/03 02:36:19;;;;;;;1879.20;323.67;;;18.10;99.90;;;;;;5114519;28;20687;-76
2021/10/03 02:38:47;;;;;;;1999.90;819.17;;;18.10;99.90;;;;;;5115746;28;20454;-77
2021/10/03 02:41:18;;;;;;;1999.90;852.43;;;18.10;99.90;;;;;;5115828;28;20440;-76
2021/10/03 02:43:52;;;;;;;1999.90;459.23;;;18.10;99.90;;;;;;5116063;28;20509;-77
2021/10/03 02:46:21;;;;;;;1999.90;999.90;;;18.00;99.90;;;;;;5114433;28;20578;-76
2021/10/03 02:48:51;;;;;;;1905.27;334.87;;;18.00;99.90;;;;;;5115943;28;20447;-76
2021/10/03 02:51:21;;;;;;;1786.13;501.33;;;18.00;99.90;;;;;;5115779;28;20441;-76
2021/10/03 02:53:50;;;;;;;1721.43;293.17;;;18.00;99.90;;;;;;5115335;28;20899;-76
2021/10/03 02:56:19;;;;;;;1746.83;300.50;;;18.00;99.90;;;;;;5115566;28;20458;-77
2021/10/03 02:58:48;;;;;;;1999.90;824.20;;;18.00;99.90;;;;;;5114302;28;20435;-76
2021/10/03 03:01:18;;;;;;;1570.57;200.63;;;18.00;99.90;;;;;;5114349;28;20477;-76
2021/10/03 03:03:47;;;;;;;1687.60;249.03;;;18.00;99.90;;;;;;5115352;28;20913;-76
2021/10/03 03:06:15;;;;;;;1723.57;264.97;;;18.00;99.90;;;;;;5115188;27;20470;-76
2021/10/03 03:08:45;;;;;;;1890.47;316.70;;;18.00;99.90;;;;;;5114041;28;20451;-76
2021/10/03 03:11:13;;;;;;;1991.47;862.65;;;18.00;99.90;;;;;;5113516;28;20438;-76
2021/10/03 03:13:43;;;;;;;1999.90;556.23;;;18.10;99.90;;;;;;5115281;28;20693;-76
2021/10/03 03:16:13;;;;;;;1988.17;402.33;;;18.10;99.90;;;;;;5115297;28;21039;-76
2021/10/03 03:18:43;;;;;;;1999.90;495.97;;;18.10;99.90;;;;;;5112473;28;20534;-77
2021/10/03 03:21:12;;;;;;;1927.70;290.43;;;18.10;99.90;;;;;;5113789;28;20439;-76
2021/10/03 03:23:41;;;;;;;1907.93;379.27;;;18.10;99.90;;;;;;5113663;28;20534;-77
2021/10/03 03:26:10;;;;;;;1089.90;140.77;;;18.00;99.90;;;;;;5115104;28;20463;-76
2021/10/03 03:28:38;;;;;;;1790.80;263.80;;;18.10;99.90;;;;;;5115105;27;20436;-76
2021/10/03 03:31:06;;;;;;;1999.90;999.90;;;18.10;99.90;;;;;;5113562;28;20436;-77
2021/10/03 03:33:35;;;;;;;1556.57;236.23;;;18.10;99.90;;;;;;5113371;28;20502;-76
2021/10/03 03:36:05;;;;;;;1806.20;325.50;;;18.10;99.90;;;;;;5114893;28;20538;-76
2021/10/03 03:38:35;;;;;;;1999.90;793.97;;;18.10;99.90;;;;;;5113190;28;20972;-77
2021/10/03 03:41:05;;;;;;;1614.90;239.30;;;18.10;99.90;;;;;;5113466;28;20964;-77
2021/10/03 03:43:33;;;;;;;1795.53;474.00;;;18.10;99.90;;;;;;5113577;28;20424;-76
2021/10/03 03:46:02;;;;;;;1999.90;792.77;;;18.10;99.90;;;;;;5113399;28;20836;-77
2021/10/03 03:48:30;;;;;;;1999.90;999.90;;;18.10;99.90;;;;;;5112032;28;20443;-76
2021/10/03 03:50:58;;;;;;;1557.87;243.80;;;18.20;99.90;;;;;;5113258;28;20186;-76
2021/10/03 03:53:28;;;;;;;1999.90;999.90;;;18.20;99.90;;;;;;5113886;28;20446;-76
2021/10/03 03:55:56;;;;;;;1965.83;446.97;;;18.20;99.90;;;;;;5114211;28;20201;-76
2021/10/03 03:58:24;;;;;;;1965.90;370.47;;;18.20;99.90;;;;;;5113036;28;20573;-76
2021/10/03 04:00:56;;;;;;;1999.90;821.83;;;18.20;99.90;;;;;;5114610;28;20463;-76
2021/10/03 04:03:25;;;;;;;1600.83;233.80;;;18.20;99.90;;;;;;5114398;28;21015;-76
2021/10/03 04:05:53;;;;;;;1999.90;777.60;;;18.20;99.90;;;;;;5112361;28;20502;-76
2021/10/03 04:08:23;;;;;;;1904.70;750.00;;;18.20;99.90;;;;;;5112987;28;20469;-76
2021/10/03 04:10:53;;;;;;;1168.73;142.17;;;18.20;99.90;;;;;;5112994;28;20826;-76
2021/10/03 04:13:21;;;;;;;1999.90;771.87;;;18.20;99.90;;;;;;5114637;28;20463;-76
2021/10/03 04:15:50;;;;;;;1773.03;717.63;;;18.20;99.90;;;;;;5114113;28;20827;-77
2021/10/03 04:18:19;;;;;;;1999.90;999.90;;;18.20;99.90;;;;;;5112767;28;20447;-76
2021/10/03 04:20:47;;;;;;;1898.40;750.67;;;18.20;99.90;;;;;;5114007;28;20434;-76
2021/10/03 04:23:15;;;;;;;1999.90;999.90;;;18.20;99.90;;;;;;5112188;28;20442;-77
2021/10/03 04:25:43;;;;;;;1999.90;771.43;;;18.30;99.90;;;;;;5111622;28;20418;-76
2021/10/03 04:28:13;;;;;;;1977.90;756.17;;;18.30;99.90;;;;;;5113858;28;20526;-76
2021/10/03 04:30:41;;;;;;;1999.90;999.90;;;18.30;99.90;;;;;;5112886;28;20427;-76
2021/10/03 04:33:10;;;;;;;1482.47;201.97;;;18.40;99.90;;;;;;5112494;28;20245;-76
2021/10/03 04:35:38;;;;;;;1961.70;397.90;;;18.40;99.90;;;;;;5112594;28;20454;-76
2021/10/03 04:38:06;;;;;;;1934.07;762.43;;;18.40;99.90;;;;;;5112312;28;20459;-76
2021/10/03 04:40:34;;;;;;;1999.90;786.40;;;18.40;99.90;;;;;;5113745;28;20959;-76
2021/10/03 04:43:02;;;;;;;1999.90;999.90;;;18.30;99.90;;;;;;5112348;28;20812;-76
2021/10/03 04:45:32;;;;;;;1999.90;999.90;;;18.30;99.90;;;;;;5114162;28;20521;-76
2021/10/03 04:48:01;;;;;;;1999.90;999.90;;;18.30;99.90;;;;;;5112360;28;20447;-77
2021/10/03 04:50:29;;;;;;;1999.90;999.90;;;18.30;99.90;;;;;;5112383;28;20439;-76
2021/10/03 04:52:58;;;;;;;1860.07;750.77;;;18.30;99.90;;;;;;5112394;28;20463;-76
2021/10/03 04:55:26;;;;;;;1779.83;730.33;;;18.30;99.90;;;;;;5112139;28;20447;-76
2021/10/03 04:57:54;;;;;;;1329.80;192.23;;;18.30;99.90;;;;;;5114083;28;20470;-77
2021/10/03 05:00:22;;;;;;;1999.90;999.90;;;18.30;99.90;;;;;;5111218;28;20438;-76
2021/10/03 05:02:53;;;;;;;1999.90;999.90;;;18.40;99.90;;;;;;5112268;28;20289;-77
2021/10/03 05:05:22;;;;;;;1999.90;999.90;;;18.40;99.90;;;;;;5113535;28;20454;-76
2021/10/03 05:07:50;;;;;;;1999.90;580.97;;;18.40;99.90;;;;;;5112284;28;20223;-76
2021/10/03 05:10:19;;;;;;;1999.90;671.73;;;18.40;99.90;;;;;;5112292;28;20498;-76
2021/10/03 05:12:47;;;;;;;1999.90;436.00;;;18.30;99.90;;;;;;5112207;28;20562;-76
2021/10/03 05:15:15;;;;;;;1999.90;890.57;;;18.30;99.90;;;;;;5112106;28;20414;-76
2021/10/03 05:17:43;;;;;;;1999.90;439.50;;;18.30;99.90;;;;;;5116247;28;20470;-77
2021/10/03 05:20:13;;;;;;;1966.70;407.90;;;18.30;99.90;;;;;;5117807;28;20435;-76
2021/10/03 05:22:41;;;;;;;1999.90;795.67;;;18.20;99.90;;;;;;5117299;28;20443;-77
2021/10/03 05:25:10;;;;;;;1999.90;850.50;;;18.20;99.90;;;;;;5117621;28;20435;-76
2021/10/03 05:27:38;;;;;;;1890.43;303.90;;;18.20;99.90;;;;;;5116056;28;20831;-77
2021/10/03 05:30:07;;;;;;;1825.37;276.80;;;18.20;99.90;;;;;;5115961;28;20449;-76
2021/10/03 05:32:35;;;;;;;1680.13;250.10;;;18.20;99.90;;;;;;5114442;28;20461;-76
2021/10/03 05:35:04;;;;;;;1999.90;999.90;;;18.20;99.90;;;;;;5116683;28;20435;-76
2021/10/03 05:37:34;;;;;;;1890.70;322.10;;;18.20;99.90;;;;;;5116873;28;20259;-76
2021/10/03 05:40:02;;;;;;;1426.23;425.43;;;18.20;99.90;;;;;;5115945;28;20880;-76
2021/10/03 05:42:30;;;;;;;1999.90;999.90;;;18.20;99.90;;;;;;5114515;28;20825;-76
2021/10/03 05:44:58;;;;;;;1999.90;999.90;;;18.30;99.90;;;;;;5117233;28;20186;-76
2021/10/03 05:47:26;;;;;;;1999.90;999.90;;;18.30;99.90;;;;;;5115483;28;20479;-76
2021/10/03 05:49:54;;;;;;;1999.90;771.13;;;18.30;99.90;;;;;;5116344;28;20644;-77
2021/10/03 05:52:22;;;;;;;1999.90;773.07;;;18.30;99.90;;;;;;5115493;28;20451;-76
2021/10/03 05:54:52;;;;;;;1238.40;149.50;;;18.30;99.90;;;;;;5115483;28;20910;-76
2021/10/03 05:57:20;;;;;;;1743.90;718.60;;;18.40;99.90;;;;;;5115309;28;20471;-76
2021/10/03 05:59:48;;;;;;;1876.20;744.40;;;18.40;99.90;;;;;;5115297;28;20465;-76
2021/10/03 06:02:16;;;;;;;1605.97;704.27;;;18.40;99.90;;;;;;5115868;28;20524;-76
2021/10/03 06:04:44;;;;;;;1999.90;999.90;;;18.40;99.90;;;;;;5117313;28;20436;-76
2021/10/03 06:07:13;;;;;;;1713.40;719.27;;;18.40;99.90;;;;;;5117021;28;20458;-76
2021/10/03 06:09:42;;;;;;;1999.90;999.90;;;18.40;99.90;;;;;;5115947;28;20477;-76
2021/10/03 06:12:12;;;;;;;1999.90;999.90;;;18.40;99.90;;;;;;5115792;28;20816;-76
2021/10/03 06:14:40;;;;;;;1999.90;999.90;;;18.40;99.90;;;;;;5115393;28;20470;-76
2021/10/03 06:17:08;;;;;;;1999.90;999.90;;;18.40;99.90;;;;;;5115002;28;20470;-76
2021/10/03 06:19:36;;;;;;;1179.40;403.50;;;18.50;99.90;;;;;;5116930;28;20217;-76
2021/10/03 06:22:05;;;;;;;1648.33;706.70;;;18.50;99.90;;;;;;5116641;28;20451;-76
2021/10/03 06:24:33;;;;;;;1999.90;999.90;;;18.50;99.90;;;;;;5115420;28;20435;-76
2021/10/03 06:27:01;;;;;;;1479.60;685.53;;;18.50;99.90;;;;;;5116128;28;20957;-75
2021/10/03 06:29:31;;;;;;;1229.37;405.93;;;18.60;99.90;;;;;;5115107;28;20486;-76
2021/10/03 06:31:59;;;;;;;1999.90;999.90;;;18.60;99.90;;;;;;5115339;28;20538;-76
2021/10/03 06:34:27;;;;;;;1999.90;999.90;;;18.60;99.90;;;;;;5116605;28;20467;-76
2021/10/03 06:36:55;;;;;;;1999.90;999.90;;;18.60;99.90;;;;;;5114897;28;20455;-76
2021/10/03 06:39:24;;;;;;;1999.90;999.90;;;18.60;99.90;;;;;;5116382;28;20551;-76
2021/10/03 06:41:52;;;;;;;1999.90;999.90;;;18.70;99.90;;;;;;5116467;28;20441;-76
2021/10/03 06:44:20;;;;;;;1999.90;999.90;;;18.70;99.90;;;;;;5116156;28;20522;-76
2021/10/03 06:46:49;;;;;;;1999.90;999.90;;;18.70;99.90;;;;;;5114479;28;20445;-76
2021/10/03 06:49:18;;;;;;;1999.90;999.90;;;18.80;99.90;;;;;;5114690;28;20654;-76
2021/10/03 06:51:46;;;;;;;1999.90;999.90;;;18.80;99.90;;;;;;5116563;28;20520;-76
2021/10/03 06:54:14;;;;;;;1999.90;999.90;;;18.80;99.90;;;;;;5114728;28;20473;-76
2021/10/03 06:56:42;;;;;;;1999.90;999.90;;;18.80;99.90;;;;;;5116438;28;20485;-76
2021/10/03 06:59:10;;;;;;;1999.90;999.90;;;18.90;99.90;;;;;;5115135;28;20534;-75
2021/10/03 07:01:38;;;;;;;1999.90;999.90;;;18.90;99.90;;;;;;5116081;28;20431;-76
2021/10/03 07:04:08;;;;;;;1999.90;999.90;;;18.90;99.90;;;;;;5114708;28;20439;-76
2021/10/03 07:06:36;;;;;;;1999.90;999.90;;;18.90;99.90;;;;;;5116114;28;20455;-75
2021/10/03 07:09:04;;;;;;;1999.90;999.90;;;19.00;99.90;;;;;;5115900;28;20834;-76
2021/10/03 07:11:33;;;;;;;1999.90;999.90;;;19.00;99.90;;;;;;5115878;28;20435;-76
2021/10/03 07:14:01;;;;;;;1999.90;999.90;;;19.00;99.90;;;;;;5116200;28;20467;-76
2021/10/03 07:16:29;;;;;;;1999.90;999.90;;;19.00;99.90;;;;;;5115574;28;20459;-76
2021/10/03 07:18:57;;;;;;;1999.90;999.90;;;19.00;99.90;;;;;;5115640;28;20431;-76
2021/10/03 07:21:27;;;;;;;1999.90;999.90;;;19.10;99.90;;;;;;5114108;28;20448;-75
2021/10/03 07:23:55;;;;;;;1999.90;999.90;;;19.10;99.90;;;;;;5114585;28;20726;-75
2021/10/03 07:26:23;;;;;;;1999.90;999.90;;;19.10;99.90;;;;;;5114078;28;20972;-76
2021/10/03 07:28:51;;;;;;;1999.90;999.90;;;19.10;99.90;;;;;;5114155;28;21047;-77
2021/10/03 07:31:20;;;;;;;1999.90;999.90;;;19.10;99.90;;;;;;5113918;28;20546;-76
2021/10/03 07:33:48;;;;;;;1999.90;999.90;;;19.20;99.90;;;;;;5115587;28;20446;-76
2021/10/03 07:36:19;;;;;;;1999.90;999.90;;;19.20;99.90;;;;;;5115301;28;20462;-77
2021/10/03 07:38:49;;;;;;;1999.90;999.90;;;19.20;99.90;;;;;;5113384;28;20458;-76
2021/10/03 07:41:17;;;;;;;1999.90;999.90;;;19.20;99.90;;;;;;5113614;28;20486;-76
2021/10/03 07:43:46;;;;;;;1999.90;999.90;;;19.20;99.90;;;;;;5115463;28;20438;-76
2021/10/03 07:46:16;;;;;;;1999.90;999.90;;;19.30;99.90;;;;;;5115439;28;20471;-76
2021/10/03 07:48:44;;;;;;;1999.90;999.90;;;19.30;99.90;;;;;;5115219;28;20443;-76
2021/10/03 07:51:13;;;;;;;1999.90;999.90;;;19.30;99.90;;;;;;5113810;28;20894;-76
2021/10/03 07:53:41;;;;;;;1999.90;999.90;;;19.30;99.90;;;;;;5114559;28;20436;-76
2021/10/03 07:56:12;;;;;;;1999.90;999.90;;;19.40;99.90;;;;;;5112951;28;20435;-76
2021/10/03 07:58:41;;;;;;;1999.90;999.90;;;19.40;99.90;;;;;;5113328;28;20185;-77
2021/10/03 08:01:09;;;;;;;1999.90;999.90;;;19.40;99.90;;;;;;5113164;28;20948;-77
2021/10/03 08:03:39;;;;;;;1999.90;999.90;;;19.40;99.90;;;;;;5114165;28;20842;-77
2021/10/03 08:06:08;;;;;;;1999.90;999.90;;;19.50;99.90;;;;;;5112984;28;20467;-76
2021/10/03 08:08:36;;;;;;;1999.90;999.90;;;19.50;99.90;;;;;;5113313;28;20485;-76
2021/10/03 08:11:04;;;;;;;1999.90;999.90;;;19.50;99.90;;;;;;5113037;28;20458;-77
2021/10/03 08:13:34;;;;;;;1999.90;999.90;;;19.50;99.90;;;;;;5114222;28;20431;-77
2021/10/03 08:16:02;;;;;;;1999.90;999.90;;;19.50;99.90;;;;;;5113920;28;20897;-75
2021/10/03 08:18:30;;;;;;;1999.90;999.90;;;19.50;99.90;;;;;;5114136;28;20409;-76
2021/10/03 08:20:59;;;;;;;1999.90;999.90;;;19.50;99.90;;;;;;5114538;28;20461;-76
2021/10/03 08:23:27;;;;;;;1999.90;999.90;;;19.50;99.90;;;;;;5114044;27;20496;-76
2021/10/03 08:25:56;;;;;;;1999.90;999.90;;;19.40;99.90;;;;;;5114003;28;20518;-76
2021/10/03 08:28:25;;;;;;;1999.90;999.90;;;19.40;99.90;;;;;;5112645;28;20443;-76
2021/10/03 08:30:55;;;;;;;1999.90;999.90;;;19.40;99.90;;;;;;5112641;28;20446;-76
2021/10/03 08:33:24;;;;;;;1999.90;999.90;;;19.40;99.90;;;;;;5112552;28;20439;-77
2021/10/03 08:35:52;;;;;;;1999.90;999.90;;;19.40;99.90;;;;;;5114080;28;20835;-77
2021/10/03 08:38:20;;;;;;;1999.90;999.90;;;19.40;99.90;;;;;;5110604;28;20449;-77
2021/10/03 08:40:48;;;;;;;1999.90;999.90;;;19.50;99.90;;;;;;5112641;28;20229;-76
2021/10/03 08:43:17;;;;;;;1999.90;999.90;;;19.50;99.90;;;;;;5112551;28;20805;-76
2021/10/03 08:45:45;;;;;;;1097.83;376.33;;;19.50;99.90;;;;;;5112411;28;20539;-76
2021/10/03 08:48:17;;;;;;;1999.90;999.90;;;19.50;99.90;;;;;;5112480;28;20444;-76
2021/10/03 08:50:47;;;;;;;1601.17;697.47;;;19.50;99.90;;;;;;5112290;28;20410;-76
2021/10/03 08:53:16;;;;;;;1999.90;999.90;;;19.40;99.90;;;;;;5112553;28;20490;-76
2021/10/03 08:55:45;;;;;;;1696.07;713.73;;;19.40;99.90;;;;;;5112230;28;20489;-77
2021/10/03 08:58:13;;;;;;;1738.93;291.97;;;19.40;99.90;;;;;;5112392;28;20443;-76
2021/10/03 09:00:46;;;;;;;1309.00;409.97;;;19.40;99.90;;;;;;5112617;28;20467;-76
2021/10/03 09:03:17;;;;;;;1999.90;814.27;;;19.40;99.90;;;;;;5112608;28;20451;-77
2021/10/03 09:05:48;;;;;;;1999.90;977.97;;;19.40;99.90;;;;;;5112502;28;20439;-77
2021/10/03 09:08:19;;;;;;;1999.90;761.40;;;19.40;99.90;;;;;;5112308;28;20243;-76
2021/10/03 09:10:52;;;;;;;1379.40;168.00;;;19.40;99.90;;;;;;5112284;28;20816;-76
2021/10/03 09:13:23;;;;;;;1999.90;999.90;;;19.40;99.90;;;;;;5112337;28;20511;-76
2021/10/03 09:16:07;;;;;;;1999.90;999.90;;;19.40;99.90;;;;;;5112111;28;20547;-76
2021/10/03 09:18:40;;;;;;;1703.57;705.93;;;19.40;99.90;;;;;;5112198;28;20443;-76
2021/10/03 09:21:10;;;;;;;1999.90;999.90;;;19.30;99.90;;;;;;5113696;28;20451;-76
2021/10/03 09:23:38;;;;;;;1614.67;707.20;;;19.30;99.90;;;;;;5113264;28;21045;-76
2021/10/03 09:26:14;;;;;;;1999.90;999.90;;;19.30;99.90;;;;;;5113759;28;20822;-77
2021/10/03 09:28:48;;;;;;;1999.90;999.90;;;19.30;99.90;;;;;;5112144;28;20454;-77
2021/10/03 09:31:18;;;;;;;1999.90;999.90;;;19.30;99.90;;;;;;5112088;28;20516;-76
2021/10/03 09:33:53;;;;;;;1999.90;999.90;;;19.30;99.90;;;;;;5112047;28;20812;-76
2021/10/03 09:36:23;;;;;;;1449.33;681.07;;;19.30;99.90;;;;;;5111824;28;20483;-76
2021/10/03 09:38:55;;;;;;;1999.90;999.90;;;19.30;99.90;;;;;;5113198;28;20773;-77
2021/10/03 09:41:25;;;;;;;1999.90;999.90;;;19.30;99.90;;;;;;5110963;28;20958;-76
2021/10/03 09:43:55;;;;;;;1999.90;999.90;;;19.40;99.90;;;;;;5112105;28;20285;-76
2021/10/03 09:46:42;;;;;;;1999.90;999.90;;;19.50;99.90;;;;;;5111924;28;20558;-76
2021/10/03 09:49:15;;;;;;;1999.90;999.90;;;19.50;99.90;;;;;;5112101;28;20534;-76
2021/10/03 09:51:48;;;;;;;1999.90;999.90;;;19.50;99.90;;;;;;5113261;28;20922;-77
2021/10/03 09:54:25;;;;;;;1999.90;999.90;;;19.50;99.90;;;;;;5113482;28;20520;-76
2021/10/03 09:57:37;;;;;;;1546.17;692.03;;;19.50;99.90;;;;;;5113423;28;20569;-76
2021/10/03 10:00:12;;;;;;;1999.90;999.90;;;19.50;99.90;;;;;;5110926;28;20435;-76
2021/10/03 10:02:41;;;;;;;1999.90;999.90;;;19.50;99.90;;;;;;5112315;28;20534;-77
2021/10/03 10:05:10;;;;;;;1999.90;999.90;;;19.50;99.90;;;;;;5115366;28;20484;-76
2021/10/03 10:07:39;;;;;;;1999.90;999.90;;;19.60;99.90;;;;;;5115239;28;20462;-77
2021/10/03 10:10:10;;;;;;;1261.63;424.93;;;19.60;99.90;;;;;;5115207;28;20545;-76
2021/10/03 10:12:54;;;;;;;1999.90;999.90;;;19.60;99.90;;;;;;5115239;28;20878;-76
2021/10/03 10:15:25;;;;;;;1999.90;999.90;;;19.70;99.90;;;;;;5117113;28;20428;-76
2021/10/03 10:18:23;;;;;;;1999.90;999.90;;;19.70;99.90;;;;;;5116390;28;20428;-76
2021/10/03 10:20:54;;;;;;;1999.90;999.90;;;19.70;99.90;;;;;;5114848;28;20816;-76
2021/10/03 10:23:28;;;;;;;1999.90;999.90;;;19.70;99.90;;;;;;5114945;28;20217;-76
2021/10/03 10:37:10;;;;;;;1999.90;999.90;;;19.80;99.90;;;;;;5116100;28;20524;-76
2021/10/03 10:39:38;;;;;;;1999.90;999.90;;;19.80;99.90;;;;;;5115947;28;20445;-77
2021/10/03 10:42:25;;;;;;;1999.90;999.90;;;19.80;99.90;;;;;;5114441;28;20443;-76
2021/10/03 10:44:53;;;;;;;1999.90;999.90;;;19.80;99.90;;;;;;5114559;28;20442;-76
2021/10/03 10:47:23;;;;;;;1999.90;999.90;;;19.80;99.90;;;;;;5116205;28;20811;-76
2021/10/03 10:49:53;;;;;;;1999.90;950.72;;;19.80;99.90;;;;;;5115669;28;20419;-76
2021/10/03 10:52:44;;;;;;;1999.90;999.90;;;19.90;99.90;;;;;;5114801;28;20233;-76
2021/10/03 10:55:28;;;;;;;1999.90;999.90;;;19.90;99.90;;;;;;5114256;28;20461;-76
2021/10/03 10:58:11;;;;;;;1999.90;999.90;;;20.00;99.90;;;;;;5115415;28;21146;-76
2021/10/03 11:01:02;;;;;;;551.80;64.83;;;20.00;99.90;;;;;;5115969;28;20430;-76
2021/10/03 11:03:59;;;;;;;1999.90;999.90;;;20.00;99.90;;;;;;5114110;28;20944;-77
2021/10/03 11:07:02;;;;;;;1249.60;394.27;;;20.00;99.90;;;;;;5095830;28;20467;-76
2021/10/03 11:09:47;;;;;;;1566.17;691.37;;;20.00;99.90;;;;;;5113926;28;20439;-76
2021/10/03 11:12:29;;;;;;;1999.90;999.90;;;20.00;99.90;;;;;;5097716;28;20439;-76
2021/10/03 11:15:33;;;;;;;1616.00;694.57;;;20.00;99.90;;;;;;5113684;28;20447;-76
2021/10/03 11:18:05;;;;;;;1656.43;701.97;;;20.00;99.90;;;;;;5115093;28;20471;-76
2021/10/03 11:20:34;;;;;;;1999.90;999.90;;;20.10;99.90;;;;;;5115046;28;20442;-76
2021/10/03 11:23:03;;;;;;;1999.90;999.90;;;20.00;99.90;;;;;;5113492;28;20442;-76
2021/10/03 11:25:34;;;;;;;1999.90;999.90;;;20.00;99.90;;;;;;5115023;28;20186;-76
2021/10/03 11:28:02;;;;;;;1999.90;999.90;;;20.10;99.90;;;;;;5115226;28;20968;-76
2021/10/03 11:31:04;;;;;;;1999.90;999.90;;;20.00;99.90;;;;;;5112919;28;20808;-76
2021/10/03 11:34:04;;;;;;;1999.90;999.90;;;20.10;99.90;;;;;;5113818;28;20189;-76
2021/10/03 11:36:49;;;;;;;1785.77;725.07;;;20.10;99.90;;;;;;5113582;27;20475;-76
2021/10/03 11:39:17;;;;;;;1955.00;755.73;;;20.10;99.90;;;;;;5113587;28;20501;-76
2021/10/03 11:41:51;;;;;;;1928.83;739.50;;;20.10;99.90;;;;;;5114635;28;20436;-76
2021/10/03 11:44:29;;;;;;;1724.43;709.00;;;20.10;99.90;;;;;;5113439;28;20438;-76
2021/10/03 11:46:59;;;;;;;1786.30;714.20;;;20.20;99.90;;;;;;5114443;28;20457;-76
2021/10/03 11:49:29;;;;;;;1999.90;770.50;;;20.20;99.90;;;;;;5113201;28;20443;-76
2021/10/03 11:51:58;;;;;;;1999.90;999.90;;;20.30;99.90;;;;;;5113231;28;20526;-76
2021/10/03 11:54:34;;;;;;;1999.90;999.90;;;20.30;99.90;;;;;;5113027;28;20546;-76
2021/10/03 11:57:30;;;;;;;1999.90;995.83;;;20.40;99.90;;;;;;5114011;28;20946;-76
2021/10/03 12:00:05;;;;;;;1640.47;703.93;;;20.40;99.90;;;;;;5066992;28;20197;-76
2021/10/03 12:02:38;;;;;;;1999.90;999.90;;;20.40;99.90;;;;;;5114712;28;20889;-76
2021/10/03 12:05:10;;;;;;;1999.90;999.90;;;20.50;99.90;;;;;;5113093;28;20504;-76
2021/10/03 12:07:39;;;;;;;1999.90;999.90;;;20.60;99.90;;;;;;5112927;28;20241;-76
2021/10/03 12:10:09;;;;;;;1999.90;999.90;;;20.70;99.90;;;;;;5114075;28;20802;-76
2021/10/03 12:12:56;;;;;;;1999.90;999.90;;;20.70;99.90;;;;;;5114288;28;20422;-76
2021/10/03 12:15:40;;;;;;;1999.90;999.90;;;20.70;99.90;;;;;;5112657;28;20435;-76
2021/10/03 12:18:10;;;;;;;1999.90;999.90;;;20.70;99.90;;;;;;5112654;28;21062;-75
2021/10/03 12:21:03;;;;;;;1999.90;999.90;;;20.70;99.90;;;;;;5112897;28;20558;-76
2021/10/03 12:23:53;;;;;;;1999.90;999.90;;;20.80;99.90;;;;;;5093691;28;20438;-76
2021/10/03 12:26:32;;;;;;;1999.90;999.90;;;20.80;99.90;;;;;;5112311;28;20494;-76
2021/10/03 12:29:13;;;;;;;1999.90;999.90;;;20.80;99.90;;;;;;5112634;28;20442;-76